createdAt,value
2018-08-10T00:01:02.040Z,19.20
2018-08-10T00:03:34.225Z,19.20
2018-08-10T00:06:05.784Z,19.20
2018-08-10T00:08:37.175Z,19.10
2018-08-10T00:11:08.688Z,19.10
2018-08-10T00:13:39.777Z,19.10
2018-08-10T00:16:11.008Z,19.10
2018-08-10T00:18:42.296Z,19.10
2018-08-10T00:30:11.781Z,19.10
2018-08-10T00:32:44.588Z,19.10
2018-08-10T00:35:16.066Z,19.00
2018-08-10T00:37:48.417Z,19.10
2018-08-10T00:40:22.420Z,19.10
2018-08-10T00:42:53.688Z,19.10
2018-08-10T00:45:24.858Z,19.00
2018-08-10T00:47:56.049Z,19.00
2018-08-10T00:50:27.547Z,19.10
2018-08-10T00:52:58.868Z,19.00
2018-08-10T00:55:30.299Z,19.00
2018-08-10T00:58:01.656Z,19.00
2018-08-10T01:00:32.815Z,18.90
2018-08-10T01:03:04.082Z,18.90
2018-08-10T01:05:35.367Z,19.00
2018-08-10T01:08:06.552Z,19.00
2018-08-10T01:10:37.785Z,19.00
2018-08-10T01:13:09.198Z,19.00
2018-08-10T01:15:40.379Z,19.00
2018-08-10T01:18:11.710Z,18.90
2018-08-10T01:20:42.787Z,19.00
2018-08-10T01:23:13.971Z,19.00
2018-08-10T01:25:45.191Z,19.00
2018-08-10T01:28:16.580Z,19.00
2018-08-10T01:30:47.744Z,19.10
2018-08-10T01:33:19.060Z,19.00
2018-08-10T01:35:50.280Z,19.10
2018-08-10T01:38:21.551Z,19.10
2018-08-10T01:40:53.096Z,19.00
2018-08-10T01:43:24.410Z,19.00
2018-08-10T01:45:55.634Z,19.00
2018-08-10T01:48:26.876Z,19.00
2018-08-10T01:50:58.214Z,19.00
2018-08-10T01:53:29.613Z,19.00
2018-08-10T01:56:00.952Z,18.90
2018-08-10T01:58:31.959Z,18.90
2018-08-10T02:01:03.149Z,18.90
2018-08-10T02:03:34.765Z,18.90
2018-08-10T02:06:06.316Z,18.90
2018-08-10T02:08:37.791Z,18.80
2018-08-10T02:11:09.197Z,18.70
2018-08-10T02:13:40.508Z,18.70
2018-08-10T02:16:11.706Z,18.70
2018-08-10T02:18:42.896Z,18.80
2018-08-10T02:21:14.715Z,18.80
2018-08-10T02:23:45.856Z,18.70
2018-08-10T02:26:17.045Z,18.70
2018-08-10T02:28:49.011Z,18.60
2018-08-10T02:31:20.384Z,18.60
2018-08-10T02:33:51.619Z,18.60
2018-08-10T02:36:23.259Z,18.60
2018-08-10T02:38:54.565Z,18.70
2018-08-10T02:41:25.616Z,18.60
2018-08-10T02:43:56.815Z,18.50
2018-08-10T02:46:28.415Z,18.50
2018-08-10T02:48:59.596Z,18.50
2018-08-10T02:51:31.091Z,18.60
2018-08-10T02:54:02.308Z,18.60
2018-08-10T02:56:33.563Z,18.60
2018-08-10T02:59:05.243Z,18.60
2018-08-10T03:01:36.271Z,18.60
2018-08-10T03:04:07.329Z,18.50
2018-08-10T03:06:38.475Z,18.50
2018-08-10T03:09:11.555Z,18.60
2018-08-10T03:11:43.431Z,18.60
2018-08-10T03:14:14.403Z,18.50
2018-08-10T03:16:45.676Z,18.50
2018-08-10T03:19:16.782Z,18.50
2018-08-10T03:21:48.431Z,18.50
2018-08-10T03:24:19.702Z,18.60
2018-08-10T03:26:51.048Z,18.50
2018-08-10T03:29:22.327Z,18.60
2018-08-10T03:31:53.334Z,18.50
2018-08-10T03:34:24.887Z,18.50
2018-08-10T03:36:55.987Z,18.50
2018-08-10T03:39:27.155Z,18.50
2018-08-10T03:41:58.319Z,18.40
2018-08-10T03:44:29.515Z,18.40
2018-08-10T03:47:00.872Z,18.40
2018-08-10T03:49:32.368Z,18.40
2018-08-10T03:52:03.940Z,18.30
2018-08-10T03:54:35.139Z,18.30
2018-08-10T03:57:06.520Z,18.30
2018-08-10T03:59:37.635Z,18.40
2018-08-10T04:02:09.236Z,18.40
2018-08-10T04:04:40.631Z,18.30
2018-08-10T04:07:11.812Z,18.30
2018-08-10T04:09:43.224Z,18.30
2018-08-10T04:12:14.631Z,18.30
2018-08-10T04:14:45.811Z,18.30
2018-08-10T04:17:22.823Z,18.30
2018-08-10T04:19:55.388Z,18.30
2018-08-10T04:22:27.644Z,18.40
2018-08-10T04:24:59.239Z,18.40
2018-08-10T04:27:30.584Z,18.30
2018-08-10T04:30:31.812Z,18.30
2018-08-10T04:33:03.009Z,18.20
2018-08-10T04:35:34.495Z,18.20
2018-08-10T04:38:05.836Z,18.20
2018-08-10T04:40:37.060Z,18.20
2018-08-10T04:43:08.204Z,18.20
2018-08-10T04:45:39.543Z,18.30
2018-08-10T04:48:11.034Z,18.30
2018-08-10T04:50:42.152Z,18.40
2018-08-10T04:53:13.624Z,18.30
2018-08-10T04:55:45.024Z,18.20
2018-08-10T04:58:16.220Z,18.20
2018-08-10T05:00:47.556Z,18.30
2018-08-10T05:03:18.927Z,18.30
2018-08-10T05:05:50.148Z,18.20
2018-08-10T05:08:21.456Z,18.30
2018-08-10T05:10:52.547Z,18.20
2018-08-10T05:13:23.667Z,18.20
2018-08-10T05:15:54.822Z,18.10
2018-08-10T05:18:26.043Z,18.10
2018-08-10T05:20:57.356Z,18.10
2018-08-10T05:23:28.435Z,18.10
2018-08-10T05:25:59.896Z,18.20
2018-08-10T05:28:31.260Z,18.30
2018-08-10T05:31:02.596Z,18.20
2018-08-10T05:33:33.815Z,18.30
2018-08-10T05:36:05.168Z,18.30
2018-08-10T05:38:36.455Z,18.30
2018-08-10T05:41:07.658Z,18.40
2018-08-10T05:43:39.047Z,18.30
2018-08-10T05:46:10.346Z,18.30
2018-08-10T05:48:42.625Z,18.30
2018-08-10T05:51:15.002Z,18.30
2018-08-10T05:53:46.242Z,18.30
2018-08-10T05:56:17.735Z,18.20
2018-08-10T05:58:49.308Z,18.10
2018-08-10T06:01:20.596Z,18.10
2018-08-10T06:03:51.934Z,18.10
2018-08-10T06:06:23.251Z,18.10
2018-08-10T06:08:54.868Z,18.10
2018-08-10T06:11:26.188Z,18.10
2018-08-10T06:13:57.176Z,18.10
2018-08-10T06:16:28.340Z,18.10
2018-08-10T06:19:00.522Z,18.20
2018-08-10T06:21:32.018Z,18.20
2018-08-10T06:24:03.299Z,18.20
2018-08-10T06:26:34.860Z,18.30
2018-08-10T06:29:05.969Z,18.30
2018-08-10T06:31:37.587Z,18.40
2018-08-10T06:34:08.709Z,18.40
2018-08-10T06:36:39.895Z,18.60
2018-08-10T06:39:12.170Z,18.60
2018-08-10T06:41:43.418Z,18.50
2018-08-10T06:44:14.611Z,18.60
2018-08-10T06:46:45.807Z,18.50
2018-08-10T06:49:17.539Z,18.40
2018-08-10T06:51:48.596Z,18.40
2018-08-10T06:54:19.964Z,18.50
2018-08-10T06:56:51.446Z,18.70
2018-08-10T06:59:22.527Z,18.80
2018-08-10T07:01:53.559Z,18.80
2018-08-10T07:04:24.747Z,18.80
2018-08-10T07:06:56.231Z,18.90
2018-08-10T07:09:27.431Z,18.90
2018-08-10T07:11:59.090Z,19.00
2018-08-10T07:14:30.264Z,19.10
2018-08-10T07:17:01.479Z,19.10
2018-08-10T07:19:33.924Z,19.00
2018-08-10T07:22:05.312Z,19.20
2018-08-10T07:24:36.646Z,19.20
2018-08-10T07:27:07.108Z,19.10
2018-08-10T07:29:38.427Z,19.10
2018-08-10T07:32:09.888Z,19.00
2018-08-10T07:34:41.192Z,19.20
2018-08-10T07:37:12.672Z,19.30
2018-08-10T07:39:43.993Z,19.30
2018-08-10T07:42:15.508Z,19.20
2018-08-10T07:44:46.563Z,19.40
2018-08-10T07:47:17.555Z,19.70
2018-08-10T07:49:48.728Z,19.90
2018-08-10T07:52:19.942Z,20.00
2018-08-10T07:54:51.156Z,20.00
2018-08-10T07:57:22.491Z,20.10
2018-08-10T07:59:53.724Z,20.30
2018-08-10T08:02:24.901Z,20.30
2018-08-10T08:04:55.957Z,20.40
2018-08-10T08:07:27.308Z,20.40
2018-08-10T08:09:58.683Z,20.30
2018-08-10T08:12:29.792Z,20.50
2018-08-10T08:15:00.984Z,20.60
2018-08-10T08:17:32.715Z,20.60
2018-08-10T08:20:04.012Z,20.70
2018-08-10T08:22:35.042Z,20.60
2018-08-10T08:25:06.869Z,20.80
2018-08-10T08:27:38.193Z,20.80
2018-08-10T08:30:10.642Z,21.30
2018-08-10T08:32:41.968Z,21.00
2018-08-10T08:35:13.284Z,20.90
2018-08-10T08:37:47.776Z,21.30
2018-08-10T08:40:25.979Z,21.20
2018-08-10T08:42:57.564Z,21.10
2018-08-10T08:46:09.674Z,21.00
2018-08-10T08:48:46.318Z,21.10
2018-08-10T08:51:26.817Z,21.10
2018-08-10T08:54:13.826Z,21.00
2018-08-10T08:56:45.839Z,21.40
2018-08-10T08:59:17.019Z,21.60
2018-08-10T09:01:48.211Z,21.60
2018-08-10T09:04:48.913Z,21.80
2018-08-10T09:07:20.126Z,21.90
2018-08-10T09:09:51.760Z,22.20
2018-08-10T09:12:23.146Z,22.50
2018-08-10T09:15:10.060Z,22.10
2018-08-10T09:17:41.481Z,22.20
2018-08-10T09:20:13.021Z,22.50
2018-08-10T09:22:44.296Z,22.40
2018-08-10T09:25:18.547Z,22.40
2018-08-10T09:27:49.920Z,22.90
2018-08-10T09:30:21.277Z,23.00
2018-08-10T09:32:53.254Z,23.20
2018-08-10T09:35:24.460Z,23.10
2018-08-10T09:37:55.744Z,23.50
2018-08-10T09:40:27.815Z,23.70
2018-08-10T09:42:59.070Z,23.60
2018-08-10T09:45:30.283Z,23.30
2018-08-10T09:48:02.292Z,23.50
2018-08-10T09:50:33.892Z,23.50
2018-08-10T09:53:06.051Z,23.70
2018-08-10T09:55:39.103Z,23.80
2018-08-10T09:58:19.337Z,23.60
2018-08-10T10:01:00.548Z,24.00
2018-08-10T10:03:31.727Z,24.30
2018-08-10T10:06:02.723Z,24.60
2018-08-10T10:08:33.912Z,24.60
2018-08-10T10:11:05.320Z,24.80
2018-08-10T10:13:36.544Z,24.80
2018-08-10T10:16:08.000Z,25.20
2018-08-10T10:18:39.363Z,25.90
2018-08-10T10:21:10.572Z,26.30
2018-08-10T10:23:41.718Z,26.70
2018-08-10T10:26:12.921Z,27.60
2018-08-10T10:28:44.306Z,27.20
2018-08-10T10:31:15.447Z,26.40
2018-08-10T10:33:46.877Z,26.50
2018-08-10T10:36:18.011Z,26.00
2018-08-10T10:38:49.207Z,25.50
2018-08-10T10:41:20.569Z,25.80
2018-08-10T10:43:51.767Z,25.70
2018-08-10T10:46:22.970Z,26.50
2018-08-10T10:48:54.223Z,27.30
2018-08-10T10:51:25.596Z,27.20
2018-08-10T10:53:56.964Z,27.10
2018-08-10T10:56:28.802Z,27.20
2018-08-10T10:58:59.905Z,27.20
2018-08-10T11:01:30.963Z,27.00
2018-08-10T11:04:02.139Z,27.60
2018-08-10T11:06:36.804Z,28.30
2018-08-10T11:09:09.683Z,28.60
2018-08-10T11:11:41.011Z,27.80
2018-08-10T11:14:12.772Z,28.00
2018-08-10T11:16:43.991Z,28.30
2018-08-10T11:19:15.403Z,28.60
2018-08-10T11:21:46.576Z,28.90
2018-08-10T11:24:17.733Z,28.50
2018-08-10T11:26:48.916Z,28.30
2018-08-10T11:29:20.202Z,28.30
2018-08-10T11:31:52.179Z,29.00
2018-08-10T11:34:23.303Z,29.40
2018-08-10T11:36:54.705Z,30.10
2018-08-10T11:39:25.864Z,30.00
2018-08-10T11:41:57.145Z,29.20
2018-08-10T11:44:28.250Z,29.50
2018-08-10T11:46:59.643Z,29.50
2018-08-10T11:49:30.860Z,29.90
2018-08-10T11:52:02.589Z,30.10
2018-08-10T11:54:34.347Z,29.50
2018-08-10T11:57:05.431Z,29.80
2018-08-10T11:59:37.077Z,30.10
2018-08-10T12:02:08.461Z,30.00
2018-08-10T12:04:39.752Z,30.40
2018-08-10T12:07:10.819Z,29.90
2018-08-10T12:09:42.139Z,28.50
2018-08-10T12:12:13.321Z,29.20
2018-08-10T12:14:45.006Z,29.40
2018-08-10T12:17:16.291Z,29.20
2018-08-10T12:19:47.776Z,29.30
2018-08-10T12:22:18.915Z,28.90
2018-08-10T12:24:50.463Z,28.70
2018-08-10T12:27:22.119Z,28.40
2018-08-10T12:29:53.272Z,28.20
2018-08-10T12:32:24.613Z,28.20
2018-08-10T12:34:59.362Z,28.80
2018-08-10T12:37:30.548Z,28.70
2018-08-10T12:40:02.533Z,28.60
2018-08-10T12:42:33.708Z,28.20
2018-08-10T12:45:05.031Z,28.40
2018-08-10T12:47:36.518Z,29.30
2018-08-10T12:50:08.193Z,29.70
2018-08-10T12:57:29.988Z,29.20
2018-08-10T13:00:01.536Z,29.80
2018-08-10T13:02:32.721Z,30.10
2018-08-10T13:05:04.004Z,29.90
2018-08-10T13:07:38.052Z,29.30
2018-08-10T13:10:11.596Z,29.50
2018-08-10T13:12:42.964Z,29.80
2018-08-10T13:15:14.330Z,29.70
2018-08-10T13:17:45.971Z,29.30
2018-08-10T13:20:17.118Z,29.50
2018-08-10T13:22:48.320Z,29.30
2018-08-10T13:25:19.512Z,29.80
2018-08-10T13:27:50.668Z,29.80
2018-08-10T13:30:22.046Z,29.50
2018-08-10T13:32:53.073Z,29.20
2018-08-10T13:35:24.444Z,29.30
2018-08-10T13:37:56.141Z,28.90
2018-08-10T13:40:27.206Z,29.20
2018-08-10T13:43:01.380Z,29.20
2018-08-10T13:45:32.620Z,29.00
2018-08-10T13:48:03.780Z,28.90
2018-08-10T13:50:35.380Z,30.40
2018-08-10T13:53:06.934Z,30.60
2018-08-10T13:55:38.320Z,30.20
2018-08-10T13:58:09.956Z,29.80
2018-08-10T14:00:41.251Z,29.20
2018-08-10T14:03:12.491Z,29.20
2018-08-10T14:05:43.712Z,29.30
2018-08-10T14:08:14.859Z,29.80
2018-08-10T14:10:46.684Z,30.10
2018-08-10T14:13:18.056Z,30.50
2018-08-10T14:15:49.442Z,30.60
2018-08-10T14:18:20.851Z,30.30
2018-08-10T14:20:52.147Z,30.00
2018-08-10T14:23:23.357Z,30.10
2018-08-10T14:25:55.337Z,29.90
2018-08-10T14:28:26.645Z,29.60
2018-08-10T14:30:57.923Z,29.10
2018-08-10T14:33:29.468Z,29.20
2018-08-10T14:36:00.731Z,29.10
2018-08-10T14:38:31.950Z,29.50
2018-08-10T14:41:03.127Z,29.50
2018-08-10T14:43:34.755Z,29.80
2018-08-10T14:46:06.053Z,29.30
2018-08-10T14:48:37.320Z,29.00
2018-08-10T14:51:08.520Z,28.80
2018-08-10T14:53:39.946Z,28.70
2018-08-10T14:56:11.242Z,28.80
2018-08-10T14:58:42.693Z,28.90
2018-08-10T15:01:14.008Z,29.00
2018-08-10T15:03:45.375Z,28.70
2018-08-10T15:06:16.667Z,28.70
2018-08-10T15:08:48.272Z,28.60
2018-08-10T15:11:19.351Z,28.30
2018-08-10T15:13:50.515Z,28.70
2018-08-10T15:16:21.727Z,28.60
2018-08-10T15:18:52.786Z,28.50
2018-08-10T15:21:23.983Z,28.40
2018-08-10T15:23:55.128Z,28.40
2018-08-10T15:26:26.493Z,28.40
2018-08-10T15:28:58.203Z,28.30
2018-08-10T15:31:29.307Z,27.90
2018-08-10T15:34:00.571Z,27.90
2018-08-10T15:36:31.684Z,27.80
2018-08-10T15:39:03.400Z,27.90
2018-08-10T15:41:34.444Z,27.80
2018-08-10T15:44:06.103Z,28.10
2018-08-10T15:46:37.423Z,27.90
2018-08-10T15:49:08.733Z,27.70
2018-08-10T15:51:39.838Z,27.70
2018-08-10T15:54:11.079Z,27.90
2018-08-10T15:56:42.626Z,27.90
2018-08-10T15:59:13.987Z,27.80
2018-08-10T16:01:45.336Z,27.50
2018-08-10T16:04:16.512Z,27.40
2018-08-10T16:06:47.553Z,27.40
2018-08-10T16:09:18.732Z,27.50
2018-08-10T16:11:50.107Z,27.70
2018-08-10T16:14:21.122Z,27.60
2018-08-10T16:16:52.568Z,27.50
2018-08-10T16:19:23.712Z,27.60
2018-08-10T16:21:54.932Z,27.30
2018-08-10T16:24:26.202Z,27.20
2018-08-10T16:26:57.345Z,27.30
2018-08-10T16:29:28.732Z,27.30
2018-08-10T16:32:00.047Z,27.30
2018-08-10T16:34:31.358Z,27.30
2018-08-10T16:37:02.440Z,27.50
2018-08-10T16:39:33.643Z,27.30
2018-08-10T16:42:05.116Z,27.00
2018-08-10T16:44:36.283Z,27.00
2018-08-10T16:47:07.697Z,27.10
2018-08-10T16:49:38.968Z,27.10
2018-08-10T16:52:10.432Z,27.00
2018-08-10T16:54:41.766Z,26.90
2018-08-10T16:57:13.247Z,27.10
2018-08-10T16:59:44.623Z,27.10
2018-08-10T17:02:15.941Z,27.00
2018-08-10T17:04:47.184Z,27.00
2018-08-10T17:07:18.340Z,27.00
2018-08-10T17:09:49.691Z,26.90
2018-08-10T17:12:21.335Z,26.90
2018-08-10T17:14:52.674Z,27.10
2018-08-10T17:17:24.092Z,27.10
2018-08-10T17:19:55.729Z,27.00
2018-08-10T17:22:27.230Z,26.80
2018-08-10T17:25:05.549Z,26.90
2018-08-10T17:27:36.793Z,26.80
2018-08-10T17:30:11.568Z,26.70
2018-08-10T17:32:42.941Z,26.60
2018-08-10T17:35:15.289Z,26.50
2018-08-10T17:37:47.999Z,26.60
2018-08-10T17:40:19.390Z,26.70
2018-08-10T17:42:50.736Z,26.50
2018-08-10T17:45:21.992Z,26.50
2018-08-10T17:47:53.293Z,26.60
2018-08-10T17:50:24.573Z,26.50
2018-08-10T17:52:55.869Z,26.40
2018-08-10T17:55:27.117Z,26.10
2018-08-10T17:57:58.934Z,26.00
2018-08-10T18:00:30.518Z,26.00
2018-08-10T18:03:02.119Z,26.00
2018-08-10T18:05:33.419Z,26.00
2018-08-10T18:08:05.090Z,25.90
2018-08-10T18:10:36.375Z,25.90
2018-08-10T18:13:07.861Z,26.00
2018-08-10T18:15:39.208Z,26.00
2018-08-10T18:18:10.764Z,25.80
2018-08-10T18:20:42.041Z,25.70
2018-08-10T18:23:13.577Z,25.60
2018-08-10T18:25:44.785Z,25.60
2018-08-10T18:28:16.115Z,25.50
2018-08-10T18:30:47.799Z,25.40
2018-08-10T18:33:18.911Z,25.30
2018-08-10T18:35:50.345Z,25.20
2018-08-10T18:38:21.508Z,25.10
2018-08-10T18:40:52.681Z,25.20
2018-08-10T18:43:23.918Z,25.20
2018-08-10T18:45:55.731Z,25.20
2018-08-10T18:48:27.021Z,25.10
2018-08-10T18:50:58.318Z,25.00
2018-08-10T18:53:29.656Z,24.90
2018-08-10T18:56:01.033Z,24.90
2018-08-10T18:58:32.452Z,24.90
2018-08-10T19:01:03.770Z,24.80
2018-08-10T19:03:35.405Z,24.70
2018-08-10T19:06:06.641Z,24.70
2018-08-10T19:08:37.748Z,24.70
2018-08-10T19:11:08.981Z,24.70
2018-08-10T19:13:40.568Z,24.60
2018-08-10T19:16:12.476Z,24.60
2018-08-10T19:19:46.437Z,24.50
2018-08-10T19:22:18.055Z,24.50
2018-08-10T19:24:49.176Z,24.30
2018-08-10T19:27:20.582Z,24.30
2018-08-10T19:29:55.383Z,24.30
2018-08-10T19:32:26.677Z,24.20
2018-08-10T19:34:57.905Z,24.20
2018-08-10T19:37:29.167Z,24.10
2018-08-10T19:40:00.265Z,24.10
2018-08-10T19:42:31.455Z,24.10
2018-08-10T19:45:02.845Z,24.10
2018-08-10T19:47:34.076Z,24.00
2018-08-10T19:50:05.848Z,23.90
2018-08-10T19:52:37.472Z,23.90
2018-08-10T19:55:10.369Z,23.90
2018-08-10T19:57:42.041Z,23.90
2018-08-10T20:00:15.500Z,23.80
2018-08-10T20:02:49.895Z,23.80
2018-08-10T20:05:21.092Z,23.80
2018-08-10T20:07:52.277Z,23.60
2018-08-10T20:10:23.617Z,23.70
2018-08-10T20:12:54.851Z,23.60
2018-08-10T20:15:26.759Z,23.50
2018-08-10T20:17:58.193Z,23.30
2018-08-10T20:20:29.643Z,23.20
2018-08-10T20:23:00.918Z,23.10
2018-08-10T20:25:32.299Z,23.10
2018-08-10T20:28:03.649Z,23.10
2018-08-10T20:30:34.975Z,23.10
2018-08-10T20:33:06.413Z,23.10
2018-08-10T20:35:37.730Z,23.10
2018-08-10T20:38:08.967Z,23.10
2018-08-10T20:40:40.400Z,23.00
2018-08-10T20:43:11.456Z,22.90
2018-08-10T20:45:42.988Z,22.90
2018-08-10T20:48:14.396Z,22.90
2018-08-10T20:50:45.661Z,22.90
2018-08-10T20:53:17.003Z,22.90
2018-08-10T20:55:48.284Z,22.80
2018-08-10T20:58:19.399Z,22.80
2018-08-10T21:00:50.731Z,22.60
2018-08-10T21:03:21.948Z,22.60
2018-08-10T21:05:53.164Z,22.70
2018-08-10T21:08:24.778Z,22.70
2018-08-10T21:10:56.615Z,22.70
2018-08-10T21:13:27.936Z,22.50
2018-08-10T21:15:59.341Z,22.50
2018-08-10T21:18:30.548Z,22.50
2018-08-10T21:21:01.848Z,22.40
2018-08-10T21:23:33.044Z,22.40
2018-08-10T21:26:04.113Z,22.50
2018-08-10T21:28:35.538Z,22.40
2018-08-10T21:31:06.923Z,22.20
2018-08-10T21:33:41.069Z,22.00
2018-08-10T21:36:12.339Z,21.90
2018-08-10T21:38:43.455Z,22.00
2018-08-10T21:41:14.728Z,21.70
2018-08-10T21:43:46.007Z,21.60
2018-08-10T21:46:17.155Z,21.50
2018-08-10T21:48:48.563Z,21.40
2018-08-10T21:51:19.706Z,21.30
2018-08-10T21:53:51.081Z,21.30
2018-08-10T21:56:22.455Z,21.20
2018-08-10T21:58:55.031Z,21.10
2018-08-10T22:01:26.199Z,21.10
2018-08-10T22:03:57.694Z,21.00
2018-08-10T22:06:29.015Z,21.00
2018-08-10T22:09:00.335Z,21.00
2018-08-10T22:11:31.613Z,21.10
2018-08-10T22:14:07.707Z,21.00
2018-08-10T22:16:44.021Z,21.00
2018-08-10T22:19:16.716Z,20.90
2018-08-10T22:21:48.082Z,20.80
2018-08-10T22:24:19.383Z,20.90
2018-08-10T22:26:51.510Z,21.10
2018-08-10T22:29:26.176Z,21.30
2018-08-10T22:31:57.543Z,21.20
2018-08-10T22:34:28.932Z,21.00
2018-08-10T22:37:00.087Z,20.90
2018-08-10T22:39:31.315Z,20.80
2018-08-10T22:42:02.732Z,20.70
2018-08-10T22:44:33.836Z,20.70
2018-08-10T22:47:05.028Z,20.60
2018-08-10T22:49:36.335Z,20.60
2018-08-10T22:52:07.583Z,20.60
2018-08-10T22:54:39.012Z,20.60
2018-08-10T22:57:10.340Z,20.70
2018-08-10T22:59:41.560Z,20.80
2018-08-10T23:02:13.280Z,20.70
2018-08-10T23:04:44.550Z,20.70
2018-08-10T23:07:15.728Z,20.60
2018-08-10T23:09:47.131Z,20.60
2018-08-10T23:12:18.762Z,20.60
2018-08-10T23:14:49.923Z,20.60
2018-08-10T23:17:21.263Z,20.60
2018-08-10T23:19:52.493Z,20.60
2018-08-10T23:22:23.860Z,20.50
2018-08-10T23:24:55.025Z,20.40
2018-08-10T23:27:26.693Z,20.40
2018-08-10T23:29:57.994Z,20.40
2018-08-10T23:32:29.535Z,20.30
2018-08-10T23:35:00.820Z,20.40
2018-08-10T23:37:32.222Z,20.30
2018-08-10T23:40:03.763Z,20.20
2018-08-10T23:42:35.034Z,20.10
2018-08-10T23:45:08.393Z,20.10
2018-08-10T23:47:40.188Z,20.00
2018-08-10T23:50:14.225Z,20.10
2018-08-10T23:52:46.279Z,20.00
2018-08-10T23:55:19.731Z,19.90
2018-08-10T23:57:50.767Z,19.90
